sensor_id;sensor_type;location;lat;lon;timestamp;temperature;humidity
17200;DHT22;8716;52.268;20.968;2023-05-07T00:00:21;7.60;99.90
17200;DHT22;8716;52.268;20.968;2023-05-07T00:02:49;7.60;99.90
17200;DHT22;8716;52.268;20.968;2023-05-07T00:05:18;7.60;99.90
17200;DHT22;8716;52.268;20.968;2023-05-07T00:07:46;7.50;99.90
17200;DHT22;8716;52.268;20.968;2023-05-07T00:10:16;7.50;99.90
17200;DHT22;8716;52.268;20.968;2023-05-07T00:12:47;7.50;99.90
17200;DHT22;8716;52.268;20.968;2023-05-07T00:15:15;7.60;99.90
17200;DHT22;8716;52.268;20.968;2023-05-07T00:17:46;7.60;99.90
17200;DHT22;8716;52.268;20.968;2023-05-07T00:20:14;7.50;99.90
17200;DHT22;8716;52.268;20.968;2023-05-07T00:22:43;7.50;99.90
17200;DHT22;8716;52.268;20.968;2023-05-07T00:25:11;7.50;99.90
17200;DHT22;8716;52.268;20.968;2023-05-07T00:27:41;7.50;99.90
17200;DHT22;8716;52.268;20.968;2023-05-07T00:30:10;7.50;99.90
17200;DHT22;8716;52.268;20.968;2023-05-07T00:32:38;7.60;99.90
17200;DHT22;8716;52.268;20.968;2023-05-07T00:35:08;7.50;99.90
17200;DHT22;8716;52.268;20.968;2023-05-07T00:37:36;7.50;99.90
17200;DHT22;8716;52.268;20.968;2023-05-07T00:40:08;7.50;99.90
17200;DHT22;8716;52.268;20.968;2023-05-07T00:42:37;7.50;99.90
17200;DHT22;8716;52.268;20.968;2023-05-07T00:45:07;7.50;99.90
17200;DHT22;8716;52.268;20.968;2023-05-07T00:47:37;7.50;99.90
17200;DHT22;8716;52.268;20.968;2023-05-07T00:50:11;7.60;99.90
17200;DHT22;8716;52.268;20.968;2023-05-07T00:52:40;7.50;99.90
17200;DHT22;8716;52.268;20.968;2023-05-07T00:55:09;7.50;99.90
17200;DHT22;8716;52.268;20.968;2023-05-07T00:57:41;7.50;99.90
17200;DHT22;8716;52.268;20.968;2023-05-07T01:00:18;7.50;99.90
17200;DHT22;8716;52.268;20.968;2023-05-07T01:02:50;7.50;99.90
17200;DHT22;8716;52.268;20.968;2023-05-07T01:05:20;7.50;99.90
17200;DHT22;8716;52.268;20.968;2023-05-07T01:07:56;7.40;99.90
17200;DHT22;8716;52.268;20.968;2023-05-07T01:10:28;7.40;99.90
17200;DHT22;8716;52.268;20.968;2023-05-07T01:12:58;7.40;99.90
17200;DHT22;8716;52.268;20.968;2023-05-07T01:15:31;7.40;99.90
17200;DHT22;8716;52.268;20.968;2023-05-07T01:17:59;7.40;99.90
17200;DHT22;8716;52.268;20.968;2023-05-07T01:20:33;7.40;99.90
17200;DHT22;8716;52.268;20.968;2023-05-07T01:23:03;7.40;99.90
17200;DHT22;8716;52.268;20.968;2023-05-07T01:25:31;7.40;99.90
17200;DHT22;8716;52.268;20.968;2023-05-07T01:28:02;7.40;99.90
17200;DHT22;8716;52.268;20.968;2023-05-07T01:30:34;7.40;99.90
17200;DHT22;8716;52.268;20.968;2023-05-07T01:33:11;7.40;99.90
17200;DHT22;8716;52.268;20.968;2023-05-07T01:35:45;7.40;99.90
17200;DHT22;8716;52.268;20.968;2023-05-07T01:38:15;7.40;99.90
17200;DHT22;8716;52.268;20.968;2023-05-07T01:40:45;7.30;99.90
17200;DHT22;8716;52.268;20.968;2023-05-07T01:43:15;7.40;99.90
17200;DHT22;8716;52.268;20.968;2023-05-07T01:45:43;7.30;99.90
17200;DHT22;8716;52.268;20.968;2023-05-07T01:48:13;7.30;99.90
17200;DHT22;8716;52.268;20.968;2023-05-07T01:50:43;7.40;99.90
17200;DHT22;8716;52.268;20.968;2023-05-07T01:53:14;7.40;99.90
17200;DHT22;8716;52.268;20.968;2023-05-07T01:55:43;7.40;99.90
17200;DHT22;8716;52.268;20.968;2023-05-07T01:58:12;7.40;99.90
17200;DHT22;8716;52.268;20.968;2023-05-07T02:00:40;7.30;99.90
17200;DHT22;8716;52.268;20.968;2023-05-07T02:03:11;7.30;99.90
17200;DHT22;8716;52.268;20.968;2023-05-07T02:05:54;7.30;99.90
17200;DHT22;8716;52.268;20.968;2023-05-07T02:08:35;7.30;99.90
17200;DHT22;8716;52.268;20.968;2023-05-07T02:11:03;7.30;99.90
17200;DHT22;8716;52.268;20.968;2023-05-07T02:13:33;7.30;99.90
17200;DHT22;8716;52.268;20.968;2023-05-07T02:16:04;7.20;99.90
17200;DHT22;8716;52.268;20.968;2023-05-07T02:18:35;7.20;99.90
17200;DHT22;8716;52.268;20.968;2023-05-07T02:21:06;7.20;99.90
17200;DHT22;8716;52.268;20.968;2023-05-07T02:23:42;7.30;99.90
17200;DHT22;8716;52.268;20.968;2023-05-07T02:26:10;7.30;99.90
17200;DHT22;8716;52.268;20.968;2023-05-07T02:28:39;7.30;99.90
17200;DHT22;8716;52.268;20.968;2023-05-07T02:31:16;7.30;99.90
17200;DHT22;8716;52.268;20.968;2023-05-07T02:33:49;7.20;99.90
17200;DHT22;8716;52.268;20.968;2023-05-07T02:36:29;7.20;99.90
17200;DHT22;8716;52.268;20.968;2023-05-07T02:39:06;7.20;99.90
17200;DHT22;8716;52.268;20.968;2023-05-07T02:41:36;7.20;99.90
17200;DHT22;8716;52.268;20.968;2023-05-07T02:44:05;7.20;99.90
17200;DHT22;8716;52.268;20.968;2023-05-07T02:46:33;7.20;99.90
17200;DHT22;8716;52.268;20.968;2023-05-07T02:49:06;7.20;99.90
17200;DHT22;8716;52.268;20.968;2023-05-07T02:51:35;7.30;99.90
17200;DHT22;8716;52.268;20.968;2023-05-07T02:54:09;7.20;99.90
17200;DHT22;8716;52.268;20.968;2023-05-07T02:56:38;7.20;99.90
17200;DHT22;8716;52.268;20.968;2023-05-07T02:59:06;7.10;99.90
17200;DHT22;8716;52.268;20.968;2023-05-07T03:01:38;7.10;99.90
17200;DHT22;8716;52.268;20.968;2023-05-07T03:04:08;7.10;99.90
17200;DHT22;8716;52.268;20.968;2023-05-07T03:06:37;7.10;99.90
17200;DHT22;8716;52.268;20.968;2023-05-07T03:09:05;7.10;99.90
17200;DHT22;8716;52.268;20.968;2023-05-07T03:11:35;7.10;99.90
17200;DHT22;8716;52.268;20.968;2023-05-07T03:14:03;7.10;99.90
17200;DHT22;8716;52.268;20.968;2023-05-07T03:16:31;7.20;99.90
17200;DHT22;8716;52.268;20.968;2023-05-07T03:19:00;7.10;99.90
17200;DHT22;8716;52.268;20.968;2023-05-07T03:21:29;7.10;99.90
17200;DHT22;8716;52.268;20.968;2023-05-07T03:23:57;7.20;99.90
17200;DHT22;8716;52.268;20.968;2023-05-07T03:26:25;7.20;99.90
17200;DHT22;8716;52.268;20.968;2023-05-07T03:28:55;7.20;99.90
17200;DHT22;8716;52.268;20.968;2023-05-07T03:31:23;7.10;99.90
17200;DHT22;8716;52.268;20.968;2023-05-07T03:33:53;7.20;99.90
17200;DHT22;8716;52.268;20.968;2023-05-07T03:36:24;7.20;99.90
17200;DHT22;8716;52.268;20.968;2023-05-07T03:38:54;7.20;99.90
17200;DHT22;8716;52.268;20.968;2023-05-07T03:41:25;7.20;99.90
17200;DHT22;8716;52.268;20.968;2023-05-07T03:43:55;7.20;99.90
17200;DHT22;8716;52.268;20.968;2023-05-07T03:46:24;7.30;99.90
17200;DHT22;8716;52.268;20.968;2023-05-07T03:48:53;7.20;99.90
17200;DHT22;8716;52.268;20.968;2023-05-07T03:51:21;7.30;99.90
17200;DHT22;8716;52.268;20.968;2023-05-07T03:53:50;7.20;99.90
17200;DHT22;8716;52.268;20.968;2023-05-07T03:56:21;7.20;99.90
17200;DHT22;8716;52.268;20.968;2023-05-07T03:58:55;7.20;99.90
17200;DHT22;8716;52.268;20.968;2023-05-07T04:01:23;7.20;99.90
17200;DHT22;8716;52.268;20.968;2023-05-07T04:03:51;7.30;99.90
17200;DHT22;8716;52.268;20.968;2023-05-07T04:06:20;7.30;99.90
17200;DHT22;8716;52.268;20.968;2023-05-07T04:08:49;7.20;99.90
17200;DHT22;8716;52.268;20.968;2023-05-07T04:11:17;7.30;99.90
17200;DHT22;8716;52.268;20.968;2023-05-07T04:13:48;7.20;99.90
17200;DHT22;8716;52.268;20.968;2023-05-07T04:16:21;7.30;99.90
17200;DHT22;8716;52.268;20.968;2023-05-07T04:18:50;7.20;99.90
17200;DHT22;8716;52.268;20.968;2023-05-07T04:21:20;7.30;99.90
17200;DHT22;8716;52.268;20.968;2023-05-07T04:23:50;7.30;99.90
17200;DHT22;8716;52.268;20.968;2023-05-07T04:26:18;7.30;99.90
17200;DHT22;8716;52.268;20.968;2023-05-07T04:28:48;7.40;99.90
17200;DHT22;8716;52.268;20.968;2023-05-07T04:31:16;7.40;99.90
17200;DHT22;8716;52.268;20.968;2023-05-07T04:33:50;7.30;99.90
17200;DHT22;8716;52.268;20.968;2023-05-07T04:36:19;7.40;99.90
17200;DHT22;8716;52.268;20.968;2023-05-07T04:38:53;7.40;99.90
17200;DHT22;8716;52.268;20.968;2023-05-07T04:41:21;7.40;99.90
17200;DHT22;8716;52.268;20.968;2023-05-07T04:43:49;7.40;99.90
17200;DHT22;8716;52.268;20.968;2023-05-07T04:46:21;7.40;99.90
17200;DHT22;8716;52.268;20.968;2023-05-07T04:48:52;7.40;99.90
17200;DHT22;8716;52.268;20.968;2023-05-07T04:51:20;7.50;99.90
17200;DHT22;8716;52.268;20.968;2023-05-07T04:53:49;7.50;99.90
17200;DHT22;8716;52.268;20.968;2023-05-07T04:56:17;7.50;99.90
17200;DHT22;8716;52.268;20.968;2023-05-07T04:58:46;7.60;99.90
17200;DHT22;8716;52.268;20.968;2023-05-07T05:01:18;7.60;99.90
17200;DHT22;8716;52.268;20.968;2023-05-07T05:03:46;7.70;99.90
17200;DHT22;8716;52.268;20.968;2023-05-07T05:06:20;7.70;99.90
17200;DHT22;8716;52.268;20.968;2023-05-07T05:08:49;7.80;99.90
17200;DHT22;8716;52.268;20.968;2023-05-07T05:11:18;7.80;99.90
17200;DHT22;8716;52.268;20.968;2023-05-07T05:13:47;7.90;99.90
17200;DHT22;8716;52.268;20.968;2023-05-07T05:16:19;7.90;99.90
17200;DHT22;8716;52.268;20.968;2023-05-07T05:18:48;8.00;99.90
17200;DHT22;8716;52.268;20.968;2023-05-07T05:21:19;8.00;99.90
17200;DHT22;8716;52.268;20.968;2023-05-07T05:23:53;8.10;99.90
17200;DHT22;8716;52.268;20.968;2023-05-07T05:26:24;8.30;99.90
17200;DHT22;8716;52.268;20.968;2023-05-07T05:28:55;8.40;99.90
17200;DHT22;8716;52.268;20.968;2023-05-07T05:31:25;8.50;99.90
17200;DHT22;8716;52.268;20.968;2023-05-07T05:33:54;8.60;99.90
17200;DHT22;8716;52.268;20.968;2023-05-07T05:36:23;8.60;99.90
17200;DHT22;8716;52.268;20.968;2023-05-07T05:38:55;8.70;99.90
17200;DHT22;8716;52.268;20.968;2023-05-07T05:41:24;8.70;99.90
17200;DHT22;8716;52.268;20.968;2023-05-07T05:43:53;8.80;99.90
17200;DHT22;8716;52.268;20.968;2023-05-07T05:46:21;8.80;99.90
17200;DHT22;8716;52.268;20.968;2023-05-07T05:48:51;8.80;99.90
17200;DHT22;8716;52.268;20.968;2023-05-07T05:51:21;8.80;99.90
17200;DHT22;8716;52.268;20.968;2023-05-07T05:53:51;8.90;99.90
17200;DHT22;8716;52.268;20.968;2023-05-07T05:56:19;9.00;99.90
17200;DHT22;8716;52.268;20.968;2023-05-07T05:58:48;9.00;99.90
17200;DHT22;8716;52.268;20.968;2023-05-07T06:01:17;9.00;99.90
17200;DHT22;8716;52.268;20.968;2023-05-07T06:03:47;9.00;99.90
17200;DHT22;8716;52.268;20.968;2023-05-07T06:06:16;9.00;99.90
17200;DHT22;8716;52.268;20.968;2023-05-07T06:08:45;9.00;99.90
17200;DHT22;8716;52.268;20.968;2023-05-07T06:11:20;9.00;99.90
17200;DHT22;8716;52.268;20.968;2023-05-07T06:13:49;9.00;99.90
17200;DHT22;8716;52.268;20.968;2023-05-07T06:16:17;9.00;99.90
17200;DHT22;8716;52.268;20.968;2023-05-07T06:18:46;9.00;99.90
17200;DHT22;8716;52.268;20.968;2023-05-07T06:21:15;9.00;99.90
17200;DHT22;8716;52.268;20.968;2023-05-07T06:23:43;9.10;99.90
17200;DHT22;8716;52.268;20.968;2023-05-07T06:26:12;9.10;99.90
17200;DHT22;8716;52.268;20.968;2023-05-07T06:28:45;9.20;99.90
17200;DHT22;8716;52.268;20.968;2023-05-07T06:31:15;9.30;99.90
17200;DHT22;8716;52.268;20.968;2023-05-07T06:33:50;9.40;99.90
17200;DHT22;8716;52.268;20.968;2023-05-07T06:36:19;9.40;99.90
17200;DHT22;8716;52.268;20.968;2023-05-07T06:38:47;9.40;99.90
17200;DHT22;8716;52.268;20.968;2023-05-07T06:41:15;9.50;99.90
17200;DHT22;8716;52.268;20.968;2023-05-07T06:43:48;9.50;99.90
17200;DHT22;8716;52.268;20.968;2023-05-07T06:46:51;9.50;99.90
17200;DHT22;8716;52.268;20.968;2023-05-07T06:49:20;9.60;99.90
17200;DHT22;8716;52.268;20.968;2023-05-07T06:51:50;9.60;99.90
17200;DHT22;8716;52.268;20.968;2023-05-07T06:54:19;9.60;99.90
17200;DHT22;8716;52.268;20.968;2023-05-07T06:56:48;9.70;99.90
17200;DHT22;8716;52.268;20.968;2023-05-07T06:59:18;9.80;99.90
17200;DHT22;8716;52.268;20.968;2023-05-07T07:01:51;9.80;99.90
17200;DHT22;8716;52.268;20.968;2023-05-07T07:04:22;9.90;99.90
17200;DHT22;8716;52.268;20.968;2023-05-07T07:07:00;10.10;99.90
17200;DHT22;8716;52.268;20.968;2023-05-07T07:09:29;10.30;99.90
17200;DHT22;8716;52.268;20.968;2023-05-07T07:11:59;10.50;99.90
17200;DHT22;8716;52.268;20.968;2023-05-07T07:14:30;10.70;99.90
17200;DHT22;8716;52.268;20.968;2023-05-07T07:16:59;10.80;99.90
17200;DHT22;8716;52.268;20.968;2023-05-07T07:19:27;11.00;99.90
17200;DHT22;8716;52.268;20.968;2023-05-07T07:21:56;11.20;99.90
17200;DHT22;8716;52.268;20.968;2023-05-07T07:24:25;11.40;99.90
17200;DHT22;8716;52.268;20.968;2023-05-07T07:26:57;11.40;99.90
17200;DHT22;8716;52.268;20.968;2023-05-07T07:29:26;11.40;99.90
17200;DHT22;8716;52.268;20.968;2023-05-07T07:31:56;11.50;99.90
17200;DHT22;8716;52.268;20.968;2023-05-07T07:34:27;11.50;99.90
17200;DHT22;8716;52.268;20.968;2023-05-07T07:36:55;11.50;99.90
17200;DHT22;8716;52.268;20.968;2023-05-07T07:39:26;11.60;99.90
17200;DHT22;8716;52.268;20.968;2023-05-07T07:41:57;11.70;99.90
17200;DHT22;8716;52.268;20.968;2023-05-07T07:44:28;11.70;99.90
17200;DHT22;8716;52.268;20.968;2023-05-07T07:47:02;11.70;99.90
17200;DHT22;8716;52.268;20.968;2023-05-07T07:49:32;11.80;99.90
17200;DHT22;8716;52.268;20.968;2023-05-07T07:52:04;11.90;99.90
17200;DHT22;8716;52.268;20.968;2023-05-07T07:54:35;11.80;99.90
17200;DHT22;8716;52.268;20.968;2023-05-07T07:57:05;11.70;99.90
17200;DHT22;8716;52.268;20.968;2023-05-07T07:59:34;11.60;99.90
17200;DHT22;8716;52.268;20.968;2023-05-07T08:02:05;11.70;99.90
17200;DHT22;8716;52.268;20.968;2023-05-07T08:04:34;11.60;99.90
17200;DHT22;8716;52.268;20.968;2023-05-07T08:07:08;11.60;99.90
17200;DHT22;8716;52.268;20.968;2023-05-07T08:09:40;11.70;99.90
17200;DHT22;8716;52.268;20.968;2023-05-07T08:12:09;11.80;99.90
17200;DHT22;8716;52.268;20.968;2023-05-07T08:14:38;11.80;99.90
17200;DHT22;8716;52.268;20.968;2023-05-07T08:17:09;11.70;99.90
17200;DHT22;8716;52.268;20.968;2023-05-07T08:19:38;11.80;99.90
17200;DHT22;8716;52.268;20.968;2023-05-07T08:22:10;11.80;99.90
17200;DHT22;8716;52.268;20.968;2023-05-07T08:24:39;12.00;99.90
17200;DHT22;8716;52.268;20.968;2023-05-07T08:27:08;12.30;99.90
17200;DHT22;8716;52.268;20.968;2023-05-07T08:29:39;12.50;99.90
17200;DHT22;8716;52.268;20.968;2023-05-07T08:32:09;12.60;99.90
17200;DHT22;8716;52.268;20.968;2023-05-07T08:34:37;12.70;99.90
17200;DHT22;8716;52.268;20.968;2023-05-07T08:37:06;12.90;99.90
17200;DHT22;8716;52.268;20.968;2023-05-07T08:39:35;13.20;99.90
17200;DHT22;8716;52.268;20.968;2023-05-07T08:42:09;13.50;99.90
17200;DHT22;8716;52.268;20.968;2023-05-07T08:44:39;13.60;99.90
17200;DHT22;8716;52.268;20.968;2023-05-07T08:47:10;13.50;99.90
17200;DHT22;8716;52.268;20.968;2023-05-07T08:49:39;13.40;99.90
17200;DHT22;8716;52.268;20.968;2023-05-07T08:52:08;13.40;99.90
17200;DHT22;8716;52.268;20.968;2023-05-07T08:54:39;13.40;99.90
17200;DHT22;8716;52.268;20.968;2023-05-07T08:57:09;13.50;99.90
17200;DHT22;8716;52.268;20.968;2023-05-07T08:59:38;14.00;99.90
17200;DHT22;8716;52.268;20.968;2023-05-07T09:02:09;14.80;99.90
17200;DHT22;8716;52.268;20.968;2023-05-07T09:04:38;15.40;99.90
17200;DHT22;8716;52.268;20.968;2023-05-07T09:07:07;15.50;99.90
17200;DHT22;8716;52.268;20.968;2023-05-07T09:09:40;15.30;99.90
17200;DHT22;8716;52.268;20.968;2023-05-07T09:12:08;15.10;99.90
17200;DHT22;8716;52.268;20.968;2023-05-07T09:14:37;15.10;99.90
17200;DHT22;8716;52.268;20.968;2023-05-07T09:17:06;15.10;99.90
17200;DHT22;8716;52.268;20.968;2023-05-07T09:19:35;15.00;99.90
17200;DHT22;8716;52.268;20.968;2023-05-07T09:22:06;14.80;99.90
17200;DHT22;8716;52.268;20.968;2023-05-07T09:24:47;14.50;99.90
17200;DHT22;8716;52.268;20.968;2023-05-07T09:27:20;14.50;99.90
17200;DHT22;8716;52.268;20.968;2023-05-07T09:29:49;14.80;99.90
17200;DHT22;8716;52.268;20.968;2023-05-07T09:32:17;15.60;99.90
17200;DHT22;8716;52.268;20.968;2023-05-07T09:34:47;16.40;99.90
17200;DHT22;8716;52.268;20.968;2023-05-07T09:37:18;16.60;99.90
17200;DHT22;8716;52.268;20.968;2023-05-07T09:39:48;16.40;99.90
17200;DHT22;8716;52.268;20.968;2023-05-07T09:42:23;16.20;99.90
17200;DHT22;8716;52.268;20.968;2023-05-07T09:44:54;16.00;99.90
17200;DHT22;8716;52.268;20.968;2023-05-07T09:47:27;15.70;99.90
17200;DHT22;8716;52.268;20.968;2023-05-07T09:50:04;15.50;99.90
17200;DHT22;8716;52.268;20.968;2023-05-07T09:52:34;15.70;99.90
17200;DHT22;8716;52.268;20.968;2023-05-07T09:55:06;16.40;99.90
17200;DHT22;8716;52.268;20.968;2023-05-07T09:57:36;17.40;99.90
17200;DHT22;8716;52.268;20.968;2023-05-07T10:00:09;17.80;99.90
17200;DHT22;8716;52.268;20.968;2023-05-07T10:02:48;17.70;99.90
17200;DHT22;8716;52.268;20.968;2023-05-07T10:05:26;17.50;99.90
17200;DHT22;8716;52.268;20.968;2023-05-07T10:07:58;17.30;99.90
17200;DHT22;8716;52.268;20.968;2023-05-07T10:10:32;17.60;99.90
17200;DHT22;8716;52.268;20.968;2023-05-07T10:13:02;17.90;99.20
17200;DHT22;8716;52.268;20.968;2023-05-07T10:15:34;18.40;98.50
17200;DHT22;8716;52.268;20.968;2023-05-07T10:18:03;18.60;97.10
17200;DHT22;8716;52.268;20.968;2023-05-07T10:20:36;18.50;96.30
17200;DHT22;8716;52.268;20.968;2023-05-07T10:23:13;18.30;96.30
17200;DHT22;8716;52.268;20.968;2023-05-07T10:25:46;18.20;95.20
17200;DHT22;8716;52.268;20.968;2023-05-07T10:28:20;17.90;95.20
17200;DHT22;8716;52.268;20.968;2023-05-07T10:31:02;18.40;94.60
17200;DHT22;8716;52.268;20.968;2023-05-07T10:33:40;18.30;94.40
17200;DHT22;8716;52.268;20.968;2023-05-07T10:36:11;18.20;94.70
17200;DHT22;8716;52.268;20.968;2023-05-07T10:38:40;18.00;94.80
17200;DHT22;8716;52.268;20.968;2023-05-07T10:41:11;17.80;94.40
17200;DHT22;8716;52.268;20.968;2023-05-07T10:43:43;17.30;94.70
17200;DHT22;8716;52.268;20.968;2023-05-07T10:46:26;16.90;95.00
17200;DHT22;8716;52.268;20.968;2023-05-07T10:49:08;16.40;96.30
17200;DHT22;8716;52.268;20.968;2023-05-07T10:52:12;16.00;97.60
17200;DHT22;8716;52.268;20.968;2023-05-07T10:54:47;15.70;98.10
17200;DHT22;8716;52.268;20.968;2023-05-07T10:57:34;15.60;98.40
17200;DHT22;8716;52.268;20.968;2023-05-07T11:00:48;15.50;98.10
17200;DHT22;8716;52.268;20.968;2023-05-07T11:03:24;15.60;98.20
17200;DHT22;8716;52.268;20.968;2023-05-07T11:06:10;15.60;97.90
17200;DHT22;8716;52.268;20.968;2023-05-07T11:08:55;15.60;98.10
17200;DHT22;8716;52.268;20.968;2023-05-07T11:11:44;15.60;97.50
17200;DHT22;8716;52.268;20.968;2023-05-07T11:14:43;15.50;97.20
17200;DHT22;8716;52.268;20.968;2023-05-07T11:17:20;15.10;97.60
17200;DHT22;8716;52.268;20.968;2023-05-07T11:19:56;14.70;97.90
17200;DHT22;8716;52.268;20.968;2023-05-07T11:22:38;14.50;98.80
17200;DHT22;8716;52.268;20.968;2023-05-07T11:25:18;14.30;99.70
17200;DHT22;8716;52.268;20.968;2023-05-07T11:27:53;14.20;99.90
17200;DHT22;8716;52.268;20.968;2023-05-07T11:30:22;14.30;99.90
17200;DHT22;8716;52.268;20.968;2023-05-07T11:32:51;14.40;99.70
17200;DHT22;8716;52.268;20.968;2023-05-07T11:35:22;14.70;99.90
17200;DHT22;8716;52.268;20.968;2023-05-07T11:37:58;15.10;99.90
17200;DHT22;8716;52.268;20.968;2023-05-07T11:40:30;15.20;99.50
17200;DHT22;8716;52.268;20.968;2023-05-07T11:42:58;15.30;99.20
17200;DHT22;8716;52.268;20.968;2023-05-07T11:45:27;15.10;99.50
17200;DHT22;8716;52.268;20.968;2023-05-07T11:47:55;15.10;99.70
17200;DHT22;8716;52.268;20.968;2023-05-07T11:50:23;15.00;99.70
17200;DHT22;8716;52.268;20.968;2023-05-07T11:52:52;14.90;99.30
17200;DHT22;8716;52.268;20.968;2023-05-07T11:55:20;14.90;99.40
17200;DHT22;8716;52.268;20.968;2023-05-07T11:57:50;14.80;99.40
17200;DHT22;8716;52.268;20.968;2023-05-07T12:00:19;14.80;99.50
17200;DHT22;8716;52.268;20.968;2023-05-07T12:02:47;15.00;99.00
17200;DHT22;8716;52.268;20.968;2023-05-07T12:05:18;15.10;99.40
17200;DHT22;8716;52.268;20.968;2023-05-07T12:07:46;15.30;98.80
17200;DHT22;8716;52.268;20.968;2023-05-07T12:10:14;15.40;99.00
17200;DHT22;8716;52.268;20.968;2023-05-07T12:12:46;15.50;99.10
17200;DHT22;8716;52.268;20.968;2023-05-07T12:15:17;15.70;98.80
17200;DHT22;8716;52.268;20.968;2023-05-07T12:17:45;15.90;98.60
17200;DHT22;8716;52.268;20.968;2023-05-07T12:20:13;15.90;97.60
17200;DHT22;8716;52.268;20.968;2023-05-07T12:22:42;15.90;97.40
17200;DHT22;8716;52.268;20.968;2023-05-07T12:25:11;15.80;96.90
17200;DHT22;8716;52.268;20.968;2023-05-07T12:27:42;15.70;97.30
17200;DHT22;8716;52.268;20.968;2023-05-07T12:30:11;15.60;97.60
17200;DHT22;8716;52.268;20.968;2023-05-07T12:32:45;15.70;98.00
17200;DHT22;8716;52.268;20.968;2023-05-07T12:35:13;15.70;97.80
17200;DHT22;8716;52.268;20.968;2023-05-07T12:37:42;15.60;97.60
17200;DHT22;8716;52.268;20.968;2023-05-07T12:40:11;15.60;97.60
17200;DHT22;8716;52.268;20.968;2023-05-07T12:42:40;15.50;98.20
17200;DHT22;8716;52.268;20.968;2023-05-07T12:45:09;15.40;98.00
17200;DHT22;8716;52.268;20.968;2023-05-07T12:47:39;15.50;98.40
17200;DHT22;8716;52.268;20.968;2023-05-07T12:50:13;15.60;98.00
17200;DHT22;8716;52.268;20.968;2023-05-07T12:52:43;15.50;98.50
17200;DHT22;8716;52.268;20.968;2023-05-07T12:55:15;15.60;98.00
17200;DHT22;8716;52.268;20.968;2023-05-07T12:57:48;15.80;97.90
17200;DHT22;8716;52.268;20.968;2023-05-07T13:00:18;15.80;97.80
17200;DHT22;8716;52.268;20.968;2023-05-07T13:03:00;15.80;97.20
17200;DHT22;8716;52.268;20.968;2023-05-07T13:05:32;15.80;97.60
17200;DHT22;8716;52.268;20.968;2023-05-07T13:08:00;15.70;97.50
17200;DHT22;8716;52.268;20.968;2023-05-07T13:10:29;15.80;97.30
17200;DHT22;8716;52.268;20.968;2023-05-07T13:12:57;15.70;96.70
17200;DHT22;8716;52.268;20.968;2023-05-07T13:15:25;15.70;97.00
17200;DHT22;8716;52.268;20.968;2023-05-07T13:17:54;15.60;96.70
17200;DHT22;8716;52.268;20.968;2023-05-07T13:20:22;15.50;96.30
17200;DHT22;8716;52.268;20.968;2023-05-07T13:22:52;15.50;97.10
17200;DHT22;8716;52.268;20.968;2023-05-07T13:25:20;15.50;97.70
17200;DHT22;8716;52.268;20.968;2023-05-07T13:27:48;15.50;96.90
17200;DHT22;8716;52.268;20.968;2023-05-07T13:30:35;15.40;97.00
17200;DHT22;8716;52.268;20.968;2023-05-07T13:33:04;15.30;97.40
17200;DHT22;8716;52.268;20.968;2023-05-07T13:35:32;15.20;97.20
17200;DHT22;8716;52.268;20.968;2023-05-07T13:38:02;15.10;97.50
17200;DHT22;8716;52.268;20.968;2023-05-07T13:40:33;15.10;97.50
17200;DHT22;8716;52.268;20.968;2023-05-07T13:43:01;15.20;96.50
17200;DHT22;8716;52.268;20.968;2023-05-07T13:45:29;15.20;97.30
17200;DHT22;8716;52.268;20.968;2023-05-07T13:47:58;15.20;97.30
17200;DHT22;8716;52.268;20.968;2023-05-07T13:50:26;15.10;96.90
17200;DHT22;8716;52.268;20.968;2023-05-07T13:52:56;15.10;96.70
17200;DHT22;8716;52.268;20.968;2023-05-07T13:55:28;15.10;96.80
17200;DHT22;8716;52.268;20.968;2023-05-07T13:58:00;15.00;97.50
17200;DHT22;8716;52.268;20.968;2023-05-07T14:00:33;14.90;96.80
17200;DHT22;8716;52.268;20.968;2023-05-07T14:03:01;14.90;97.10
17200;DHT22;8716;52.268;20.968;2023-05-07T14:05:30;15.00;97.50
17200;DHT22;8716;52.268;20.968;2023-05-07T14:07:58;14.90;97.30
17200;DHT22;8716;52.268;20.968;2023-05-07T14:10:28;14.80;97.20
17200;DHT22;8716;52.268;20.968;2023-05-07T14:12:57;14.80;97.20
17200;DHT22;8716;52.268;20.968;2023-05-07T14:15:25;14.80;97.10
17200;DHT22;8716;52.268;20.968;2023-05-07T14:17:53;14.80;97.20
17200;DHT22;8716;52.268;20.968;2023-05-07T14:20:24;14.80;97.10
17200;DHT22;8716;52.268;20.968;2023-05-07T14:22:52;14.80;96.60
17200;DHT22;8716;52.268;20.968;2023-05-07T14:25:24;14.80;96.40
17200;DHT22;8716;52.268;20.968;2023-05-07T14:27:53;14.80;96.60
17200;DHT22;8716;52.268;20.968;2023-05-07T14:30:21;14.80;97.00
17200;DHT22;8716;52.268;20.968;2023-05-07T14:32:51;14.90;96.40
17200;DHT22;8716;52.268;20.968;2023-05-07T14:35:19;14.90;96.30
17200;DHT22;8716;52.268;20.968;2023-05-07T14:37:47;14.90;97.00
17200;DHT22;8716;52.268;20.968;2023-05-07T14:40:16;14.90;97.00
17200;DHT22;8716;52.268;20.968;2023-05-07T14:42:46;14.80;97.30
17200;DHT22;8716;52.268;20.968;2023-05-07T14:45:16;14.80;96.60
17200;DHT22;8716;52.268;20.968;2023-05-07T14:47:45;14.80;96.90
17200;DHT22;8716;52.268;20.968;2023-05-07T14:50:13;14.80;96.30
17200;DHT22;8716;52.268;20.968;2023-05-07T14:52:41;14.80;96.60
17200;DHT22;8716;52.268;20.968;2023-05-07T14:55:10;14.80;97.00
17200;DHT22;8716;52.268;20.968;2023-05-07T14:57:39;14.80;96.90
17200;DHT22;8716;52.268;20.968;2023-05-07T15:00:08;14.90;96.80
17200;DHT22;8716;52.268;20.968;2023-05-07T15:02:39;14.80;96.90
17200;DHT22;8716;52.268;20.968;2023-05-07T15:05:08;14.70;96.60
17200;DHT22;8716;52.268;20.968;2023-05-07T15:07:38;14.70;96.50
17200;DHT22;8716;52.268;20.968;2023-05-07T15:10:07;14.70;96.80
17200;DHT22;8716;52.268;20.968;2023-05-07T15:12:36;14.70;97.00
17200;DHT22;8716;52.268;20.968;2023-05-07T15:15:05;14.70;96.90
17200;DHT22;8716;52.268;20.968;2023-05-07T15:17:34;14.80;96.90
17200;DHT22;8716;52.268;20.968;2023-05-07T15:20:05;14.80;97.20
17200;DHT22;8716;52.268;20.968;2023-05-07T15:22:33;14.80;96.60
17200;DHT22;8716;52.268;20.968;2023-05-07T15:25:03;14.80;96.80
17200;DHT22;8716;52.268;20.968;2023-05-07T15:27:32;14.90;95.70
17200;DHT22;8716;52.268;20.968;2023-05-07T15:30:00;14.90;96.40
17200;DHT22;8716;52.268;20.968;2023-05-07T15:32:30;15.00;96.40
17200;DHT22;8716;52.268;20.968;2023-05-07T15:34:58;15.10;95.90
17200;DHT22;8716;52.268;20.968;2023-05-07T15:37:28;15.10;94.90
17200;DHT22;8716;52.268;20.968;2023-05-07T15:39:56;15.00;95.10
17200;DHT22;8716;52.268;20.968;2023-05-07T15:42:24;14.90;95.60
17200;DHT22;8716;52.268;20.968;2023-05-07T15:44:53;14.90;95.80
17200;DHT22;8716;52.268;20.968;2023-05-07T15:47:21;14.90;96.00
17200;DHT22;8716;52.268;20.968;2023-05-07T15:49:49;14.90;96.30
17200;DHT22;8716;52.268;20.968;2023-05-07T15:52:17;14.90;96.00
17200;DHT22;8716;52.268;20.968;2023-05-07T15:54:47;15.00;95.80
17200;DHT22;8716;52.268;20.968;2023-05-07T15:57:15;14.90;95.80
17200;DHT22;8716;52.268;20.968;2023-05-07T15:59:43;14.90;95.30